createdAt,value
2018-02-20T00:02:02.843Z,-2.00
2018-02-20T00:04:30.436Z,-1.90
2018-02-20T00:06:58.013Z,-1.90
2018-02-20T00:09:25.559Z,-2.00
2018-02-20T00:11:53.132Z,-2.00
2018-02-20T00:14:20.676Z,-2.00
2018-02-20T00:16:48.243Z,-2.00
2018-02-20T00:19:16.552Z,-2.00
2018-02-20T00:21:44.124Z,-2.00
2018-02-20T00:24:11.672Z,-2.00
2018-02-20T00:26:39.243Z,-2.10
2018-02-20T00:29:07.562Z,-2.00
2018-02-20T00:31:35.145Z,-2.10
2018-02-20T00:34:02.698Z,-2.00
2018-02-20T00:36:30.245Z,-2.00
2018-02-20T00:38:58.579Z,-2.00
2018-02-20T00:41:26.127Z,-2.00
2018-02-20T00:43:53.699Z,-1.90
2018-02-20T00:46:21.249Z,-1.90
2018-02-20T00:48:49.584Z,-1.90
2018-02-20T00:51:17.197Z,-2.00
2018-02-20T00:53:45.527Z,-1.90
2018-02-20T00:56:13.121Z,-1.90
2018-02-20T00:58:40.687Z,-1.90
2018-02-20T01:01:08.259Z,-2.00
2018-02-20T01:03:35.837Z,-2.00
2018-02-20T01:06:03.391Z,-2.00
2018-02-20T01:08:30.944Z,-2.00
2018-02-20T01:10:58.520Z,-2.00
2018-02-20T01:13:26.074Z,-2.00
2018-02-20T01:15:54.408Z,-2.10
2018-02-20T01:18:21.955Z,-2.10
2018-02-20T01:20:49.520Z,-2.10
2018-02-20T01:23:17.067Z,-2.10
2018-02-20T01:25:45.438Z,-2.20
2018-02-20T01:28:12.967Z,-2.20
2018-02-20T01:30:40.533Z,-2.20
2018-02-20T01:33:08.085Z,-2.30
2018-02-20T01:35:36.425Z,-2.30
2018-02-20T01:38:04.137Z,-2.30
2018-02-20T01:40:32.476Z,-2.20
2018-02-20T01:43:00.045Z,-2.20
2018-02-20T01:45:27.604Z,-2.20
2018-02-20T01:47:55.175Z,-2.10
2018-02-20T01:50:22.720Z,-2.10
2018-02-20T01:52:50.288Z,-2.10
2018-02-20T01:55:17.848Z,-2.10
2018-02-20T01:57:45.416Z,-2.10
2018-02-20T02:00:12.969Z,-2.10
2018-02-20T02:02:40.536Z,-2.10
2018-02-20T02:05:08.105Z,-2.10
2018-02-20T02:07:35.672Z,-2.00
2018-02-20T02:10:03.230Z,-2.00
2018-02-20T02:12:30.797Z,-2.00
2018-02-20T02:14:58.355Z,-2.00
2018-02-20T02:17:26.672Z,-1.90
2018-02-20T02:19:54.240Z,-1.90
2018-02-20T02:22:21.786Z,-1.90
2018-02-20T02:24:50.119Z,-1.90
2018-02-20T02:27:18.447Z,-1.80
2018-02-20T02:29:46.780Z,-1.80
2018-02-20T02:32:14.329Z,-1.80
2018-02-20T02:34:42.671Z,-1.80
2018-02-20T02:37:10.217Z,-1.90
2018-02-20T02:39:37.802Z,-1.90
2018-02-20T02:42:05.357Z,-1.90
2018-02-20T02:44:32.923Z,-1.90
2018-02-20T02:47:00.475Z,-1.90
2018-02-20T02:49:28.051Z,-1.80
2018-02-20T02:51:59.483Z,-1.90
2018-02-20T02:54:27.073Z,-1.90
2018-02-20T02:56:55.388Z,-1.90
2018-02-20T02:59:22.943Z,-2.00
2018-02-20T03:01:51.278Z,-2.00
2018-02-20T03:04:18.838Z,-2.00
2018-02-20T03:06:46.414Z,-2.00
2018-02-20T03:09:13.970Z,-2.00
2018-02-20T03:11:41.567Z,-2.00
2018-02-20T03:14:09.117Z,-2.00
2018-02-20T03:16:36.710Z,-2.00
2018-02-20T03:19:04.265Z,-2.00
2018-02-20T03:21:31.841Z,-2.00
2018-02-20T03:23:59.388Z,-2.00
2018-02-20T03:26:26.957Z,-2.00
2018-02-20T03:28:54.512Z,-2.00
2018-02-20T03:31:22.830Z,-2.00
2018-02-20T03:33:50.405Z,-2.10
2018-02-20T03:36:17.960Z,-2.00
2018-02-20T03:38:45.534Z,-2.00
2018-02-20T03:41:13.093Z,-1.90
2018-02-20T03:43:41.434Z,-1.90
2018-02-20T03:46:08.984Z,-1.90
2018-02-20T03:48:36.564Z,-1.90
2018-02-20T03:51:04.129Z,-1.90
2018-02-20T03:53:31.698Z,-1.90
2018-02-20T03:55:59.262Z,-1.90
2018-02-20T03:58:26.847Z,-2.00
2018-02-20T04:00:54.403Z,-1.90
2018-02-20T04:03:22.036Z,-1.90
2018-02-20T04:05:49.621Z,-1.90
2018-02-20T04:08:17.953Z,-1.90
2018-02-20T04:10:45.761Z,-1.90
2018-02-20T04:13:13.356Z,-1.90
2018-02-20T04:15:40.933Z,-1.90
2018-02-20T04:18:08.480Z,-1.90
2018-02-20T04:20:36.053Z,-2.00
2018-02-20T04:23:03.618Z,-2.00
2018-02-20T04:25:31.225Z,-2.00
2018-02-20T04:27:58.778Z,-2.00
2018-02-20T04:30:26.357Z,-2.00
2018-02-20T04:32:53.913Z,-2.00
2018-02-20T04:35:21.492Z,-1.90
2018-02-20T04:37:49.805Z,-2.00
2018-02-20T04:40:17.380Z,-2.00
2018-02-20T04:42:44.924Z,-2.00
2018-02-20T04:45:12.508Z,-2.00
2018-02-20T04:47:40.073Z,-2.00
2018-02-20T04:50:07.622Z,-2.00
2018-02-20T04:52:35.199Z,-2.00
2018-02-20T04:55:02.748Z,-2.00
2018-02-20T04:57:30.325Z,-2.00
2018-02-20T04:59:57.877Z,-2.00
2018-02-20T05:02:26.204Z,-2.10
2018-02-20T05:04:53.762Z,-2.10
2018-02-20T05:07:21.352Z,-2.00
2018-02-20T05:09:49.700Z,-2.00
2018-02-20T05:12:17.264Z,-2.00
2018-02-20T05:14:45.583Z,-2.10
2018-02-20T05:17:13.161Z,-2.10
2018-02-20T05:19:40.721Z,-2.10
2018-02-20T05:22:08.328Z,-2.10
2018-02-20T05:24:35.883Z,-2.20
2018-02-20T05:27:03.440Z,-2.20
2018-02-20T05:29:31.008Z,-2.20
2018-02-20T05:31:58.555Z,-2.30
2018-02-20T05:34:26.893Z,-2.30
2018-02-20T05:36:54.444Z,-2.30
2018-02-20T05:39:22.009Z,-2.30
2018-02-20T05:41:49.555Z,-2.30
2018-02-20T05:44:17.881Z,-2.30
2018-02-20T05:46:45.433Z,-2.40
2018-02-20T05:49:13.005Z,-2.30
2018-02-20T05:51:40.557Z,-2.30
2018-02-20T05:54:08.908Z,-2.40
2018-02-20T05:56:37.224Z,-2.40
2018-02-20T05:59:04.780Z,-2.40
2018-02-20T06:01:32.361Z,-2.40
2018-02-20T06:03:59.915Z,-2.40
2018-02-20T06:06:27.480Z,-2.40
2018-02-20T06:08:55.800Z,-2.40
2018-02-20T06:11:23.373Z,-2.40
2018-02-20T06:13:50.937Z,-2.40
2018-02-20T06:16:18.514Z,-2.30
2018-02-20T06:18:46.064Z,-2.30
2018-02-20T06:21:13.636Z,-2.30
2018-02-20T06:23:41.176Z,-2.30
2018-02-20T06:26:08.739Z,-2.30
2018-02-20T06:28:36.296Z,-2.20
2018-02-20T06:31:03.868Z,-2.20
2018-02-20T06:33:32.200Z,-2.10
2018-02-20T06:35:59.772Z,-2.10
2018-02-20T06:38:27.347Z,-2.00
2018-02-20T06:40:54.924Z,-2.00
2018-02-20T06:43:22.483Z,-1.90
2018-02-20T06:45:50.037Z,-1.90
2018-02-20T06:48:17.600Z,-1.80
2018-02-20T06:50:45.155Z,-1.80
2018-02-20T06:53:13.496Z,-1.70
2018-02-20T06:55:41.075Z,-1.70
2018-02-20T06:58:08.660Z,-1.70
2018-02-20T07:00:36.213Z,-1.60
2018-02-20T07:03:03.784Z,-1.50
2018-02-20T07:05:31.339Z,-1.40
2018-02-20T07:07:58.915Z,-1.40
2018-02-20T07:10:26.485Z,-1.30
2018-02-20T07:12:54.067Z,-1.30
2018-02-20T07:15:21.627Z,-1.30
2018-02-20T07:17:49.203Z,-1.30
2018-02-20T07:20:16.748Z,-1.30
2018-02-20T07:22:44.296Z,-1.30
2018-02-20T07:25:12.628Z,-1.30
2018-02-20T07:27:40.188Z,-1.30
2018-02-20T07:30:07.767Z,-1.20
2018-02-20T07:32:35.311Z,-1.00
2018-02-20T07:35:03.649Z,-0.70
2018-02-20T07:37:31.196Z,-0.70
2018-02-20T07:39:58.772Z,-0.50
2018-02-20T07:42:26.319Z,-0.30
2018-02-20T07:44:53.899Z,-0.20
2018-02-20T07:47:21.464Z,-0.10
2018-02-20T07:49:49.296Z,0.00
2018-02-20T07:52:16.852Z,0.00
2018-02-20T07:54:44.433Z,0.00
2018-02-20T07:57:11.991Z,0.00
2018-02-20T07:59:40.340Z,-0.10
2018-02-20T08:02:08.662Z,-0.10
2018-02-20T08:04:36.236Z,-0.10
2018-02-20T08:07:03.794Z,-0.10
2018-02-20T08:09:31.392Z,-0.20
2018-02-20T08:11:58.936Z,-0.20
2018-02-20T08:14:26.472Z,1.20
2018-02-20T08:16:54.933Z,-0.20
2018-02-20T08:19:22.496Z,-0.20
2018-02-20T08:21:50.062Z,-0.30
2018-02-20T08:24:17.621Z,-0.20
2018-02-20T08:26:45.188Z,-0.20
2018-02-20T08:29:12.787Z,-0.20
2018-02-20T08:31:40.332Z,-0.20
2018-02-20T08:34:07.883Z,-0.20
2018-02-20T08:36:36.572Z,-0.10
2018-02-20T08:39:04.983Z,0.00
2018-02-20T08:41:32.593Z,-0.10
2018-02-20T08:44:00.137Z,0.00
2018-02-20T08:46:27.685Z,0.10
2018-02-20T08:48:56.017Z,0.20
2018-02-20T08:51:23.552Z,0.20
2018-02-20T08:53:51.906Z,0.30
2018-02-20T08:56:20.215Z,0.30
2018-02-20T08:58:48.023Z,0.40
2018-02-20T09:01:15.556Z,0.40
2018-02-20T09:03:45.121Z,0.40
2018-02-20T09:06:12.680Z,0.40
2018-02-20T09:08:40.241Z,0.50
2018-02-20T09:11:10.165Z,0.60
2018-02-20T09:13:38.492Z,0.80
2018-02-20T09:16:06.068Z,0.70
2018-02-20T09:18:33.638Z,0.90
2018-02-20T09:21:01.196Z,1.00
2018-02-20T09:23:28.782Z,1.10
2018-02-20T09:25:56.334Z,1.30
2018-02-20T09:28:23.897Z,1.40
2018-02-20T09:30:52.818Z,1.60
2018-02-20T09:33:20.365Z,1.80
2018-02-20T09:35:48.692Z,2.00
2018-02-20T09:38:16.363Z,2.00
2018-02-20T09:40:43.927Z,2.10
2018-02-20T09:43:11.482Z,2.20
2018-02-20T09:45:39.048Z,2.20
2018-02-20T09:48:06.593Z,2.20
2018-02-20T09:50:34.148Z,2.30
2018-02-20T09:53:01.718Z,2.50
2018-02-20T09:55:29.282Z,2.60
2018-02-20T09:57:56.835Z,2.70
2018-02-20T10:00:24.417Z,2.70
2018-02-20T10:02:51.967Z,2.80
2018-02-20T10:05:19.549Z,2.90
2018-02-20T10:07:47.095Z,3.10
2018-02-20T10:10:14.645Z,3.30
2018-02-20T10:12:42.973Z,3.60
2018-02-20T10:15:10.524Z,3.60
2018-02-20T10:17:38.096Z,3.60
2018-02-20T10:20:05.650Z,3.70
2018-02-20T10:22:33.980Z,3.60
2018-02-20T10:25:01.532Z,3.60
2018-02-20T10:27:29.152Z,3.70
2018-02-20T10:29:56.754Z,3.60
2018-02-20T10:32:25.086Z,3.50
2018-02-20T10:34:52.633Z,3.50
2018-02-20T10:37:20.197Z,3.70
2018-02-20T10:42:21.751Z,3.80
2018-02-20T10:44:49.320Z,3.90
2018-02-20T10:47:16.918Z,3.90
2018-02-20T10:49:44.500Z,4.00
2018-02-20T10:52:12.869Z,4.10
2018-02-20T10:54:40.432Z,4.10
2018-02-20T10:57:08.058Z,4.20
2018-02-20T10:59:35.630Z,4.40
2018-02-20T11:02:03.222Z,4.50
2018-02-20T11:04:31.627Z,4.40
2018-02-20T11:06:59.227Z,4.40
2018-02-20T11:09:26.829Z,4.50
2018-02-20T11:11:55.165Z,4.40
2018-02-20T11:14:22.756Z,4.40
2018-02-20T11:16:51.896Z,4.20
2018-02-20T11:19:18.708Z,4.20
2018-02-20T11:21:46.276Z,4.20
2018-02-20T11:24:13.860Z,4.20
2018-02-20T11:26:41.438Z,4.30
2018-02-20T11:29:09.027Z,4.20
2018-02-20T11:31:36.652Z,4.20
2018-02-20T11:34:04.313Z,4.30
2018-02-20T11:36:31.894Z,4.40
2018-02-20T11:38:59.472Z,4.40
2018-02-20T11:41:27.096Z,4.40
2018-02-20T11:43:55.438Z,4.30
2018-02-20T11:46:23.370Z,4.40
2018-02-20T11:48:51.723Z,4.00
2018-02-20T11:51:19.314Z,4.00
2018-02-20T11:53:46.902Z,3.70
2018-02-20T11:56:15.273Z,3.10
2018-02-20T11:58:43.272Z,3.00
2018-02-20T12:01:11.662Z,2.80
2018-02-20T12:03:40.003Z,2.70
2018-02-20T12:06:07.590Z,2.70
2018-02-20T12:08:35.166Z,2.60
2018-02-20T12:11:02.763Z,2.70
2018-02-20T12:13:31.111Z,3.30
2018-02-20T12:15:58.705Z,3.30
2018-02-20T12:18:26.276Z,3.60
2018-02-20T12:20:53.885Z,3.70
2018-02-20T12:23:21.464Z,3.80
2018-02-20T12:25:49.804Z,3.90
2018-02-20T12:28:17.404Z,4.10
2018-02-20T12:30:45.752Z,4.20
2018-02-20T12:33:13.340Z,4.20
2018-02-20T12:35:40.932Z,4.20
2018-02-20T12:38:08.529Z,4.10
2018-02-20T12:40:36.100Z,4.10
2018-02-20T12:43:04.459Z,4.30
2018-02-20T12:45:32.044Z,4.30
2018-02-20T12:48:00.414Z,4.20
2018-02-20T12:50:27.980Z,4.20
2018-02-20T12:52:55.569Z,4.20
2018-02-20T12:55:23.179Z,4.30
2018-02-20T12:57:50.759Z,4.40
2018-02-20T13:00:18.334Z,4.40
2018-02-20T13:02:45.931Z,4.50
2018-02-20T13:05:13.512Z,4.40
2018-02-20T13:07:41.107Z,4.40
2018-02-20T13:10:08.693Z,4.40
2018-02-20T13:12:36.371Z,4.40
2018-02-20T13:15:03.992Z,4.40
2018-02-20T13:17:31.574Z,4.30
2018-02-20T13:19:59.159Z,4.40
2018-02-20T13:22:26.729Z,4.50
2018-02-20T13:24:54.321Z,4.60
2018-02-20T13:27:22.663Z,4.50
2018-02-20T13:29:50.265Z,4.50
2018-02-20T13:32:17.837Z,4.60
2018-02-20T13:34:45.434Z,4.50
2018-02-20T13:37:13.014Z,4.50
2018-02-20T13:39:41.368Z,4.40
2018-02-20T13:42:08.946Z,4.40
2018-02-20T13:44:36.539Z,4.40
2018-02-20T13:47:04.901Z,4.50
2018-02-20T13:49:32.498Z,4.50
2018-02-20T13:52:00.087Z,4.50
2018-02-20T13:54:28.445Z,4.60
2018-02-20T13:56:56.388Z,4.60
2018-02-20T13:59:23.993Z,4.70
2018-02-20T14:01:51.566Z,4.70
2018-02-20T14:04:19.944Z,4.60
2018-02-20T14:06:48.501Z,4.60
2018-02-20T14:09:16.832Z,4.40
2018-02-20T14:11:44.424Z,4.40
2018-02-20T14:14:12.006Z,4.30
2018-02-20T14:16:39.603Z,4.20
2018-02-20T14:19:07.946Z,4.10
2018-02-20T14:21:35.531Z,4.10
2018-02-20T14:24:03.105Z,4.20
2018-02-20T14:26:30.708Z,4.10
2018-02-20T14:28:59.047Z,3.90
2018-02-20T14:31:26.643Z,3.90
2018-02-20T14:33:54.227Z,3.80
2018-02-20T14:36:21.811Z,3.70
2018-02-20T14:38:50.151Z,3.70
2018-02-20T14:41:17.735Z,3.60
2018-02-20T14:43:45.314Z,3.70
2018-02-20T14:46:12.937Z,3.70
2018-02-20T14:48:40.501Z,3.60
2018-02-20T14:51:08.125Z,3.40
2018-02-20T14:53:35.718Z,3.40
2018-02-20T14:56:04.104Z,3.40
2018-02-20T14:58:31.716Z,3.40
2018-02-20T15:01:00.234Z,3.40
2018-02-20T15:03:27.835Z,3.40
2018-02-20T15:05:55.446Z,3.40
2018-02-20T15:08:23.146Z,3.30
2018-02-20T15:10:50.696Z,3.30
2018-02-20T15:13:18.298Z,3.30
2018-02-20T15:15:45.867Z,3.20
2018-02-20T15:18:13.466Z,3.20
2018-02-20T15:20:41.045Z,3.20
2018-02-20T15:23:08.639Z,3.10
2018-02-20T15:25:37.371Z,3.00
2018-02-20T15:28:04.971Z,2.90
2018-02-20T15:30:32.543Z,2.90
2018-02-20T15:33:00.148Z,2.80
2018-02-20T15:35:27.736Z,2.70
2018-02-20T15:37:56.064Z,2.60
2018-02-20T15:40:23.674Z,2.60
2018-02-20T15:42:51.252Z,2.60
2018-02-20T15:45:18.855Z,2.50
2018-02-20T15:47:46.434Z,2.40
2018-02-20T15:50:14.045Z,2.40
2018-02-20T15:52:41.624Z,2.30
2018-02-20T15:55:09.221Z,2.30
2018-02-20T15:57:37.564Z,0.80
2018-02-20T16:00:05.929Z,2.20
2018-02-20T16:02:33.491Z,2.20
2018-02-20T16:05:01.095Z,2.10
2018-02-20T16:07:28.681Z,2.00
2018-02-20T16:09:56.287Z,1.90
2018-02-20T16:12:24.633Z,1.60
2018-02-20T16:14:52.247Z,1.60
2018-02-20T16:17:20.592Z,1.50
2018-02-20T16:19:48.182Z,1.50
2018-02-20T16:22:15.745Z,1.40
2018-02-20T16:24:43.348Z,1.40
2018-02-20T16:27:10.918Z,1.30
2018-02-20T16:29:38.494Z,1.20
2018-02-20T16:32:06.932Z,1.10
2018-02-20T16:34:34.505Z,1.00
2018-02-20T16:37:02.104Z,0.90
2018-02-20T16:39:29.685Z,0.80
2018-02-20T16:41:58.082Z,0.70
2018-02-20T16:44:25.660Z,0.60
2018-02-20T16:46:53.254Z,0.60
2018-02-20T16:49:21.598Z,0.50
2018-02-20T16:51:49.183Z,0.50
2018-02-20T16:54:16.752Z,0.40
2018-02-20T16:56:44.618Z,0.40
2018-02-20T16:59:12.437Z,0.30
2018-02-20T17:01:40.802Z,0.10
2018-02-20T17:04:08.399Z,0.10
2018-02-20T17:06:36.755Z,-0.10
2018-02-20T17:09:04.336Z,-0.10
2018-02-20T17:11:31.942Z,-0.20
2018-02-20T17:13:59.529Z,-0.20
2018-02-20T17:16:27.660Z,-0.20
2018-02-20T17:18:55.250Z,-0.30
2018-02-20T17:21:22.932Z,-0.30
2018-02-20T17:23:50.512Z,-0.30
2018-02-20T17:26:18.881Z,-0.50
2018-02-20T17:28:46.457Z,-0.50
2018-02-20T17:31:14.055Z,-0.50
2018-02-20T17:33:43.705Z,-0.60
2018-02-20T17:36:11.329Z,-0.60
2018-02-20T17:38:38.913Z,-0.60
2018-02-20T17:41:07.269Z,-0.60
2018-02-20T17:43:34.873Z,-0.60
2018-02-20T17:46:03.225Z,-0.60
2018-02-20T17:48:30.819Z,-0.70
2018-02-20T17:50:58.419Z,-0.70
2018-02-20T17:53:26.791Z,-0.80
2018-02-20T17:55:54.376Z,-0.80
2018-02-20T17:58:22.736Z,-0.90
2018-02-20T18:00:50.311Z,-0.90
2018-02-20T18:03:17.947Z,-0.90
2018-02-20T18:05:45.524Z,-0.90
2018-02-20T18:08:13.136Z,-0.80
2018-02-20T18:10:40.731Z,-0.90
2018-02-20T18:13:09.588Z,-0.90
2018-02-20T18:15:37.162Z,-0.90
2018-02-20T18:18:05.521Z,-1.00
2018-02-20T18:20:33.126Z,-1.00
2018-02-20T18:23:00.781Z,-1.00
2018-02-20T18:25:28.366Z,-1.00
2018-02-20T18:27:55.956Z,-1.10
2018-02-20T18:30:23.612Z,-1.10
2018-02-20T18:32:51.215Z,-1.20
2018-02-20T18:35:18.812Z,-1.20
2018-02-20T18:37:47.161Z,-1.30
2018-02-20T18:40:14.781Z,-1.30
2018-02-20T18:42:42.381Z,-1.30
2018-02-20T18:45:10.046Z,-1.30
2018-02-20T18:47:37.674Z,-1.30
2018-02-20T18:50:05.277Z,-1.30
2018-02-20T18:52:32.871Z,-1.30
2018-02-20T18:55:00.464Z,-1.30
2018-02-20T18:57:28.066Z,-1.40
2018-02-20T18:59:55.690Z,-1.40
2018-02-20T19:02:23.277Z,-1.40
2018-02-20T19:04:50.980Z,-1.40
2018-02-20T19:07:18.548Z,-1.40
2018-02-20T19:09:46.123Z,-1.50
2018-02-20T19:12:13.725Z,-1.50
2018-02-20T19:14:41.376Z,-1.60
2018-02-20T19:17:09.749Z,-1.70
2018-02-20T19:19:37.378Z,-1.80
2018-02-20T19:22:04.976Z,-1.80
2018-02-20T19:24:32.547Z,-1.90
2018-02-20T19:27:00.136Z,-2.00
2018-02-20T19:29:27.720Z,-2.10
2018-02-20T19:31:55.344Z,-2.10
2018-02-20T19:34:22.951Z,-2.10
2018-02-20T19:36:50.540Z,-2.10
2018-02-20T19:39:18.191Z,-2.20
2018-02-20T19:41:46.578Z,-2.30
2018-02-20T19:44:14.172Z,-2.30
2018-02-20T19:46:41.766Z,-2.30
2018-02-20T19:49:10.153Z,-2.40
2018-02-20T19:51:38.527Z,-2.40
2018-02-20T19:54:06.131Z,-2.40
2018-02-20T19:56:34.471Z,-2.40
2018-02-20T19:59:02.069Z,-2.40
2018-02-20T20:01:29.649Z,-2.40
2018-02-20T20:03:57.266Z,-2.40
2018-02-20T20:06:24.840Z,-2.40
2018-02-20T20:08:52.424Z,-2.40
2018-02-20T20:11:20.033Z,-2.40
2018-02-20T20:13:47.660Z,-2.50
2018-02-20T20:16:15.280Z,-2.60
2018-02-20T20:18:43.331Z,-2.60
2018-02-20T20:21:10.907Z,-2.40
2018-02-20T20:23:38.549Z,-2.40
2018-02-20T20:26:06.281Z,-2.40
2018-02-20T20:28:34.652Z,-2.30
2018-02-20T20:31:02.256Z,-2.40
2018-02-20T20:33:30.633Z,-2.40
2018-02-20T20:35:58.239Z,-2.40
2018-02-20T20:38:25.812Z,-2.40
2018-02-20T20:40:53.458Z,-2.50
2018-02-20T20:43:22.026Z,-2.40
2018-02-20T20:45:49.702Z,-2.40
2018-02-20T20:48:17.273Z,-2.40
2018-02-20T20:50:44.894Z,-2.40
2018-02-20T20:53:12.482Z,-2.40
2018-02-20T20:55:40.078Z,-2.40
2018-02-20T20:58:07.662Z,-2.40
2018-02-20T21:00:35.397Z,-2.40
2018-02-20T21:03:02.976Z,-2.50
2018-02-20T21:05:30.574Z,-2.50
2018-02-20T21:07:58.157Z,-2.50
2018-02-20T21:10:26.511Z,-2.70
2018-02-20T21:12:54.094Z,-2.70
2018-02-20T21:15:21.694Z,-2.70
2018-02-20T21:17:49.290Z,-2.80
2018-02-20T21:20:16.875Z,-2.80
2018-02-20T21:22:45.227Z,-2.80
2018-02-20T21:25:12.871Z,-2.80
2018-02-20T21:27:40.502Z,-2.80
2018-02-20T21:30:08.096Z,-2.80
2018-02-20T21:32:35.697Z,-2.80
2018-02-20T21:35:03.324Z,-2.70
2018-02-20T21:37:31.691Z,-2.70
2018-02-20T21:39:59.262Z,-2.70
2018-02-20T21:42:26.866Z,-2.70
2018-02-20T21:44:55.207Z,-2.80
2018-02-20T21:47:22.817Z,-2.80
2018-02-20T21:49:50.432Z,-2.80
2018-02-20T21:52:18.041Z,-2.80
2018-02-20T21:54:45.622Z,-2.90
2018-02-20T21:57:13.221Z,-2.90
2018-02-20T21:59:41.565Z,-3.00
2018-02-20T22:02:09.179Z,-3.00
2018-02-20T22:04:37.543Z,-3.10
2018-02-20T22:07:05.161Z,-3.10
2018-02-20T22:09:32.731Z,-3.10
2018-02-20T22:12:00.310Z,-3.10
2018-02-20T22:14:27.919Z,-3.20
2018-02-20T22:16:55.493Z,-3.20
2018-02-20T22:19:23.126Z,-3.30
2018-02-20T22:21:50.699Z,-3.40
2018-02-20T22:24:18.309Z,-3.40
2018-02-20T22:26:45.882Z,-3.40
2018-02-20T22:29:13.488Z,-3.40
2018-02-20T22:31:41.061Z,-3.50
2018-02-20T22:34:09.422Z,-3.60
2018-02-20T22:36:37.001Z,-3.60
2018-02-20T22:39:04.600Z,-3.60
2018-02-20T22:41:32.933Z,-3.60
2018-02-20T22:44:00.520Z,-3.60
2018-02-20T22:46:28.100Z,-3.60
2018-02-20T22:48:56.532Z,-3.70
2018-02-20T22:51:24.888Z,-3.80
2018-02-20T22:53:52.482Z,-3.80
2018-02-20T22:56:20.077Z,-3.90
2018-02-20T22:58:48.440Z,-4.00
2018-02-20T23:01:16.042Z,-4.00
2018-02-20T23:03:43.637Z,-3.90
2018-02-20T23:06:11.227Z,-3.90
2018-02-20T23:08:38.802Z,-3.90
2018-02-20T23:11:06.401Z,-3.90
2018-02-20T23:13:34.185Z,-3.90
2018-02-20T23:16:01.833Z,-3.90
2018-02-20T23:18:29.424Z,-3.90
2018-02-20T23:20:57.021Z,-4.00
2018-02-20T23:23:25.355Z,-3.90
2018-02-20T23:25:52.976Z,-3.90
2018-02-20T23:28:21.322Z,-3.90
2018-02-20T23:30:48.901Z,-3.90
2018-02-20T23:33:16.503Z,-3.90
2018-02-20T23:35:44.853Z,-3.90
2018-02-20T23:38:12.453Z,-3.90
2018-02-20T23:40:40.037Z,-3.90
2018-02-20T23:43:08.428Z,-3.90
2018-02-20T23:45:36.777Z,-4.00
2018-02-20T23:48:04.377Z,-4.00
2018-02-20T23:50:31.961Z,-4.00
2018-02-20T23:52:59.548Z,-4.00
2018-02-20T23:55:27.895Z,-4.00
2018-02-20T23:57:55.487Z,-4.10
